NSFA

Faleolo International Airport

Apia, Samoa
TAF NSFA 231109Z 2312/2412 08008KT 9999 SCT020 SCT040 PROB30 TEMPO 2401/2406 6000 TSRA FEW018CB
Issued Valid From Valid To
Jul-23 @ 11:09 UTC
(3 hours ago)
Jul-23 @ 12:00 UTC
(2 hours ago)
Jul-24 @ 12:00 UTC
(in 22 hours)
Jul-23 @ 12:00 to Jul-24 @ 12:00
TAF NSFA 231109Z 2312/2412 08008KT 9999 SCT020 SCT040
Wind Visibility Clouds
80° at 8 knots 10,000+ meters
  • Scattered at 2,000' AGL
  • Scattered at 4,000' AGL
Temporary  (Probability 30%) Jul-24 @ 01:00 to Jul-24 @ 06:00
PROB30 TEMPO 2401/2406 6000 TSRA FEW018CB
Visibility Clouds Conditions
6,003 meters
  • Few at 1,800' AGL
  • Thunderstorm
  • Rain
TAF NSFA 231109Z 2312/2412 08008KT 9999 SCT020 SCT040 PROB30 TEMPO 2401/2406 6000 TSRA FEW018CB
Issued Jul-23 @ 11:09 UTC
(3 hours ago)
Valid From Jul-23 @ 12:00 UTC
(2 hours ago)
Valid To Jul-24 @ 12:00 UTC
(in 22 hours)
Jul-23 @ 12:00 - Jul-24 @ 12:00
Wind Visibility
80° at 8 knots 10,000+ meters
Clouds
  • Scattered at 2,000' AGL
  • Scattered at 4,000' AGL
Probability 30% Temporary Jul-24 @ 01:00 - Jul-24 @ 06:00
Clouds
  • Few at 1,800' AGL
Conditions
  • Thunderstorm
  • Rain